createdAt,value
2022-11-09T00:02:44.134Z,960.55
2022-11-09T00:07:45.720Z,960.62
2022-11-09T00:12:47.746Z,960.65
2022-11-09T00:17:49.443Z,960.77
2022-11-09T00:22:50.774Z,960.76
2022-11-09T00:27:52.196Z,960.65
2022-11-09T00:32:53.609Z,960.59
2022-11-09T00:37:55.177Z,960.64
2022-11-09T00:42:57.355Z,960.57
2022-11-09T00:47:59.016Z,960.5
2022-11-09T00:53:00.859Z,960.51
2022-11-09T00:58:02.718Z,960.55
2022-11-09T01:03:04.008Z,960.48
2022-11-09T01:08:05.519Z,960.52
2022-11-09T01:13:07.573Z,960.53
2022-11-09T01:18:08.820Z,960.54
2022-11-09T01:23:10.603Z,960.54
2022-11-09T01:28:12.369Z,960.52
2022-11-09T01:33:14.288Z,960.45
2022-11-09T01:38:15.671Z,960.45
2022-11-09T01:43:17.428Z,960.5
2022-11-09T01:48:18.512Z,960.47
2022-11-09T01:53:20.177Z,960.51
2022-11-09T01:58:21.462Z,960.44
2022-11-09T02:03:23.094Z,960.4
2022-11-09T02:08:24.342Z,960.37
2022-11-09T02:13:26.349Z,960.3
2022-11-09T02:18:28.391Z,960.37
2022-11-09T02:23:30.129Z,960.41
2022-11-09T02:28:32.164Z,960.44
2022-11-09T02:33:34.045Z,960.36
2022-11-09T02:38:36.055Z,960.36
2022-11-09T02:43:37.461Z,960.31
2022-11-09T02:48:39.201Z,960.33
2022-11-09T02:53:40.393Z,960.36
2022-11-09T02:58:41.676Z,960.35
2022-11-09T03:03:42.942Z,960.36
2022-11-09T03:08:44.743Z,960.33
2022-11-09T03:13:46.769Z,960.3
2022-11-09T03:18:48.160Z,960.27
2022-11-09T03:23:49.751Z,960.35
2022-11-09T03:28:57.568Z,960.36
2022-11-09T03:33:59.272Z,960.35
2022-11-09T03:39:00.875Z,960.32
2022-11-09T03:44:02.901Z,960.36
2022-11-09T03:49:04.605Z,960.37
2022-11-09T03:54:06.750Z,960.33
2022-11-09T03:59:08.850Z,960.35
2022-11-09T04:04:10.061Z,960.35
2022-11-09T04:09:11.673Z,960.32
2022-11-09T04:14:13.505Z,960.31
2022-11-09T04:19:15.128Z,960.33
2022-11-09T04:24:16.878Z,960.32
2022-11-09T04:29:18.992Z,960.24
2022-11-09T04:34:20.729Z,960.29
2022-11-09T04:39:22.164Z,960.38
2022-11-09T04:44:23.601Z,960.36
2022-11-09T04:49:25.534Z,960.36
2022-11-09T04:54:27.234Z,960.33
2022-11-09T04:59:28.695Z,960.49
2022-11-09T05:04:29.907Z,960.43
2022-11-09T05:09:31.413Z,960.44
2022-11-09T05:14:32.787Z,960.44
2022-11-09T05:19:34.055Z,960.45
2022-11-09T05:24:36.010Z,960.39
2022-11-09T05:29:38.240Z,960.36
2022-11-09T05:34:39.934Z,960.38
2022-11-09T05:39:41.096Z,960.39
2022-11-09T05:44:42.695Z,960.4
2022-11-09T05:49:44.527Z,960.38
2022-11-09T05:54:45.790Z,960.42
2022-11-09T05:59:47.952Z,960.51
2022-11-09T06:04:50.065Z,960.55
2022-11-09T06:09:51.856Z,960.72
2022-11-09T06:14:53.236Z,960.91
2022-11-09T06:19:54.800Z,961.03
2022-11-09T06:24:56.235Z,961.07
2022-11-09T06:29:58.433Z,961.05
2022-11-09T06:34:59.950Z,961.24
2022-11-09T06:40:01.952Z,961.37
2022-11-09T06:45:03.216Z,961.56
2022-11-09T06:50:04.454Z,961.67
2022-11-09T06:55:05.807Z,961.77
2022-11-09T07:00:07.271Z,961.71
2022-11-09T07:05:08.574Z,961.8
2022-11-09T07:10:10.060Z,961.91
2022-11-09T07:15:11.575Z,961.9
2022-11-09T07:20:13.457Z,961.86
2022-11-09T07:25:14.887Z,961.86
2022-11-09T07:30:16.375Z,961.8
2022-11-09T07:35:18.412Z,961.83
2022-11-09T07:40:19.951Z,961.8
2022-11-09T07:45:21.680Z,961.77
2022-11-09T07:50:23.353Z,961.8
2022-11-09T07:55:25.396Z,961.72
2022-11-09T08:00:26.906Z,961.77
2022-11-09T08:05:28.958Z,961.78
2022-11-09T08:10:30.224Z,961.8
2022-11-09T08:15:32.143Z,961.85
2022-11-09T08:20:33.429Z,961.95
2022-11-09T08:25:35.324Z,961.98
2022-11-09T08:30:37.053Z,961.97
2022-11-09T08:35:38.885Z,961.96
2022-11-09T08:40:40.151Z,961.95
2022-11-09T08:45:41.437Z,961.97
2022-11-09T08:50:43.450Z,962.1
2022-11-09T08:55:49.290Z,962.11
2022-11-09T09:00:46.548Z,962.19
2022-11-09T09:05:48.307Z,962.23
2022-11-09T09:10:49.799Z,962.28
2022-11-09T09:15:51.256Z,962.24
2022-11-09T09:20:52.977Z,962.28
2022-11-09T09:25:58.441Z,962.28
2022-11-09T09:30:56.428Z,962.29
2022-11-09T09:35:57.847Z,962.27
2022-11-09T09:40:59.467Z,962.25
2022-11-09T09:46:00.700Z,962.28
2022-11-09T09:51:02.454Z,962.3
2022-11-09T09:56:04.157Z,962.29
2022-11-09T10:01:06.287Z,962.28
2022-11-09T10:06:08.288Z,962.16
2022-11-09T10:41:21.084Z,962.02
2022-11-09T11:06:29.283Z,961.74
2022-11-09T11:16:32.881Z,961.65
2022-11-09T11:21:34.217Z,961.56
2022-11-09T11:31:37.830Z,961.5
2022-11-09T11:36:39.999Z,961.44
2022-11-09T11:41:41.916Z,961.46
2022-11-09T11:46:43.547Z,961.49
2022-11-09T11:51:45.152Z,961.51
2022-11-09T11:56:47.024Z,961.46
2022-11-09T12:01:48.734Z,961.35
2022-11-09T12:06:50.422Z,961.28
2022-11-09T12:11:52.259Z,961.36
2022-11-09T12:16:54.477Z,961.31
2022-11-09T12:21:56.488Z,961.3
2022-11-09T12:27:11.208Z,961.27
2022-11-09T12:32:00.240Z,961.21
2022-11-09T12:37:02.088Z,961.11
2022-11-09T12:42:03.545Z,961.16
2022-11-09T12:47:04.988Z,961.15
2022-11-09T12:52:06.935Z,961.1
2022-11-09T12:57:08.364Z,961.06
2022-11-09T13:02:10.151Z,961.02
2022-11-09T13:07:12.045Z,960.94
2022-11-09T13:12:16.089Z,960.96
2022-11-09T13:17:14.945Z,960.88
2022-11-09T13:22:17.051Z,960.83
2022-11-09T13:27:18.334Z,960.88
2022-11-09T13:32:20.512Z,960.82
2022-11-09T13:37:22.319Z,960.81
2022-11-09T13:42:24.115Z,960.85
2022-11-09T13:47:25.512Z,960.84
2022-11-09T13:52:27.284Z,960.78
2022-11-09T13:57:28.991Z,960.84
2022-11-09T14:02:31.150Z,960.88
2022-11-09T14:07:33.216Z,960.92
2022-11-09T14:12:34.395Z,960.92
2022-11-09T14:17:36.000Z,960.91
2022-11-09T14:22:37.964Z,960.99
2022-11-09T14:27:39.191Z,961
2022-11-09T14:32:41.043Z,961.01
2022-11-09T14:37:42.682Z,960.99
2022-11-09T14:42:46.253Z,961.02
2022-11-09T14:47:45.940Z,960.98
2022-11-09T14:52:47.195Z,960.98
2022-11-09T14:57:48.562Z,961.04
2022-11-09T15:02:50.674Z,961
2022-11-09T15:07:52.151Z,961.02
2022-11-09T15:12:54.085Z,961.09
2022-11-09T15:17:55.491Z,961.08
2022-11-09T15:22:57.165Z,961.12
2022-11-09T15:27:59.071Z,961.13
2022-11-09T15:33:01.319Z,961.13
2022-11-09T15:38:03.174Z,961.2
2022-11-09T15:43:04.675Z,961.23
2022-11-09T15:48:06.579Z,961.27
2022-11-09T15:53:08.434Z,961.36
2022-11-09T15:58:10.272Z,961.39
2022-11-09T16:03:12.496Z,961.42
2022-11-09T16:08:13.811Z,961.43
2022-11-09T16:13:15.593Z,961.54
2022-11-09T16:18:20.186Z,961.54
2022-11-09T16:23:18.760Z,961.65
2022-11-09T16:28:20.535Z,961.72
2022-11-09T16:33:21.624Z,961.74
2022-11-09T16:38:23.678Z,961.84
2022-11-09T16:43:25.393Z,961.86
2022-11-09T16:48:27.173Z,961.94
2022-11-09T16:53:29.000Z,962.01
2022-11-09T16:58:31.185Z,962.09
2022-11-09T17:03:32.969Z,962.14
2022-11-09T17:08:34.128Z,962.25
2022-11-09T17:13:35.475Z,962.37
2022-11-09T17:18:37.193Z,962.44
2022-11-09T17:23:39.010Z,962.53
2022-11-09T17:28:43.050Z,962.64
2022-11-09T17:33:42.595Z,962.72
2022-11-09T17:38:44.670Z,962.74
2022-11-09T17:43:46.648Z,962.74
2022-11-09T17:48:48.289Z,962.74
2022-11-09T17:53:49.501Z,962.85
2022-11-09T17:58:51.007Z,962.91
2022-11-09T18:03:52.432Z,962.99
2022-11-09T18:09:19.578Z,962.98
2022-11-09T18:13:55.804Z,963.02
2022-11-09T18:18:57.142Z,963.06
2022-11-09T18:23:58.315Z,963.07
2022-11-09T18:29:00.421Z,963.13
2022-11-09T18:34:02.580Z,963.1
2022-11-09T18:39:04.066Z,963.13
2022-11-09T18:44:06.089Z,963.16
2022-11-09T18:49:11.612Z,963.15
2022-11-09T18:54:09.383Z,963.19
2022-11-09T18:59:11.358Z,963.25
2022-11-09T19:04:13.201Z,963.21
2022-11-09T19:09:14.428Z,963.32
2022-11-09T19:14:16.064Z,963.37
2022-11-09T19:19:17.335Z,963.48
2022-11-09T19:24:19.204Z,963.48
2022-11-09T19:29:20.868Z,963.54
2022-11-09T19:34:22.504Z,963.6
2022-11-09T19:39:26.384Z,963.63
2022-11-09T19:44:25.862Z,963.69
2022-11-09T19:49:27.768Z,963.75
2022-11-09T19:54:29.656Z,963.74
2022-11-09T19:59:31.165Z,963.75
2022-11-09T20:04:32.879Z,963.78
2022-11-09T20:09:34.065Z,963.85
2022-11-09T20:14:42.488Z,963.85
2022-11-09T20:19:44.285Z,963.88
2022-11-09T20:24:45.794Z,963.94
2022-11-09T20:29:47.162Z,963.97
2022-11-09T20:34:49.196Z,963.99
2022-11-09T20:39:50.847Z,964.07
2022-11-09T20:44:52.950Z,964.13
2022-11-09T20:49:55.221Z,964.15
2022-11-09T20:54:57.147Z,964.19
2022-11-09T20:59:59.227Z,964.28
2022-11-09T21:05:01.049Z,964.3
2022-11-09T21:10:02.655Z,964.29
2022-11-09T21:15:04.798Z,964.36
2022-11-09T21:20:06.199Z,964.41
2022-11-09T21:25:07.922Z,964.44
2022-11-09T21:30:09.821Z,964.48
2022-11-09T21:35:11.812Z,964.54
2022-11-09T21:40:13.509Z,964.57
2022-11-09T21:45:14.824Z,964.67
2022-11-09T21:50:16.311Z,964.72
2022-11-09T21:55:17.529Z,964.76
2022-11-09T22:00:18.851Z,964.83
2022-11-09T22:05:22.883Z,964.86
2022-11-09T22:10:21.500Z,964.87
2022-11-09T22:15:23.424Z,964.92
2022-11-09T22:20:24.712Z,964.93
2022-11-09T22:25:26.235Z,965.02
2022-11-09T22:30:28.383Z,965.1
2022-11-09T22:35:30.328Z,965.22
2022-11-09T22:40:32.417Z,965.22
2022-11-09T22:45:34.147Z,965.27
2022-11-09T22:50:35.550Z,965.29
2022-11-09T22:55:36.808Z,965.34
2022-11-09T23:15:43.539Z,965.51
2022-11-09T23:20:45.329Z,965.55
2022-11-09T23:25:47.222Z,965.6
2022-11-09T23:30:49.551Z,965.62
2022-11-09T23:35:50.841Z,965.63
2022-11-09T23:40:52.601Z,965.66
2022-11-09T23:45:54.191Z,965.66
2022-11-09T23:50:56.205Z,965.7
2022-11-09T23:55:57.602Z,965.76
